createdAt,value
2019-01-31T00:00:04.515Z,994.32
2019-01-31T00:01:04.516Z,994.32
2019-01-31T00:02:04.519Z,994.28
2019-01-31T00:03:04.496Z,994.28
2019-01-31T00:04:04.483Z,994.33
2019-01-31T00:05:05.120Z,994.35
2019-01-31T00:06:04.496Z,994.33
2019-01-31T00:07:04.469Z,994.31
2019-01-31T00:08:04.430Z,994.42
2019-01-31T00:09:04.433Z,994.49
2019-01-31T00:10:05.123Z,994.44
2019-01-31T00:11:04.398Z,994.34
2019-01-31T00:12:04.401Z,994.48
2019-01-31T00:13:04.384Z,994.48
2019-01-31T00:14:04.371Z,994.39
2019-01-31T00:15:04.358Z,994.48
2019-01-31T00:16:04.365Z,994.46
2019-01-31T00:17:04.425Z,994.43
2019-01-31T00:18:04.333Z,994.47
2019-01-31T00:19:04.313Z,994.47
2019-01-31T00:20:04.299Z,994.51
2019-01-31T00:21:04.297Z,994.47
2019-01-31T00:22:04.302Z,994.50
2019-01-31T00:23:04.279Z,994.46
2019-01-31T00:24:04.258Z,994.46
2019-01-31T00:25:04.252Z,994.43
2019-01-31T00:26:04.234Z,994.39
2019-01-31T00:27:04.241Z,994.40
2019-01-31T00:28:04.212Z,994.45
2019-01-31T00:29:04.211Z,994.39
2019-01-31T00:30:04.198Z,994.41
2019-01-31T00:31:04.188Z,994.44
2019-01-31T00:32:04.188Z,994.39
2019-01-31T00:33:04.163Z,994.39
2019-01-31T00:34:04.151Z,994.36
2019-01-31T00:35:04.149Z,994.38
2019-01-31T00:36:04.127Z,994.36
2019-01-31T00:37:04.162Z,994.38
2019-01-31T00:38:04.107Z,994.37
2019-01-31T00:39:04.096Z,994.30
2019-01-31T00:40:04.092Z,994.37
2019-01-31T00:41:04.080Z,994.36
2019-01-31T00:42:04.083Z,994.39
2019-01-31T00:43:04.050Z,994.46
2019-01-31T00:44:04.045Z,994.39
2019-01-31T00:45:04.034Z,994.36
2019-01-31T00:46:04.024Z,994.39
2019-01-31T00:47:04.052Z,994.38
2019-01-31T00:48:03.998Z,994.33
2019-01-31T00:49:03.983Z,994.36
2019-01-31T00:50:03.982Z,994.38
2019-01-31T00:51:03.990Z,994.45
2019-01-31T00:52:03.957Z,994.37
2019-01-31T00:53:03.960Z,994.40
2019-01-31T00:54:03.943Z,994.41
2019-01-31T00:55:03.928Z,994.44
2019-01-31T00:56:03.915Z,994.44
2019-01-31T00:57:03.911Z,994.37
2019-01-31T00:58:03.909Z,994.42
2019-01-31T00:59:03.876Z,994.44
2019-01-31T01:00:03.869Z,994.45
2019-01-31T01:01:03.855Z,994.43
2019-01-31T01:02:03.849Z,994.45
2019-01-31T01:03:03.851Z,994.51
2019-01-31T01:04:03.823Z,994.53
2019-01-31T01:05:03.814Z,994.52
2019-01-31T01:06:03.828Z,994.50
2019-01-31T01:07:03.815Z,994.52
2019-01-31T01:08:03.795Z,994.54
2019-01-31T01:09:07.724Z,994.53
2019-01-31T01:10:03.760Z,994.50
2019-01-31T01:11:03.746Z,994.46
2019-01-31T01:12:04.577Z,994.46
2019-01-31T01:13:03.760Z,994.52
2019-01-31T01:14:03.724Z,994.51
2019-01-31T01:15:03.704Z,994.46
2019-01-31T01:16:03.691Z,994.46
2019-01-31T01:17:03.683Z,994.50
2019-01-31T01:18:03.673Z,994.53
2019-01-31T01:19:03.669Z,994.53
2019-01-31T01:20:03.656Z,994.48
2019-01-31T01:21:03.640Z,994.53
2019-01-31T01:22:03.628Z,994.51
2019-01-31T01:23:03.617Z,994.52
2019-01-31T01:24:03.616Z,994.57
2019-01-31T01:25:03.613Z,994.59
2019-01-31T01:26:03.604Z,994.61
2019-01-31T01:27:03.571Z,994.60
2019-01-31T01:28:03.596Z,994.62
2019-01-31T01:29:03.567Z,994.59
2019-01-31T01:30:03.545Z,994.68
2019-01-31T01:31:03.619Z,994.64
2019-01-31T01:32:03.517Z,994.66
2019-01-31T01:33:03.507Z,994.71
2019-01-31T01:34:03.506Z,994.65
2019-01-31T01:35:03.486Z,994.63
2019-01-31T01:36:03.483Z,994.64
2019-01-31T01:37:03.470Z,994.68
2019-01-31T01:38:03.454Z,994.67
2019-01-31T01:39:03.461Z,994.66
2019-01-31T01:40:03.432Z,994.68
2019-01-31T01:41:03.421Z,994.68
2019-01-31T01:42:03.422Z,994.69
2019-01-31T01:43:03.406Z,994.66
2019-01-31T01:44:03.398Z,994.66
2019-01-31T01:45:03.375Z,994.64
2019-01-31T01:46:03.362Z,994.62
2019-01-31T01:47:03.352Z,994.65
2019-01-31T01:48:03.347Z,994.61
2019-01-31T01:49:03.633Z,994.65
2019-01-31T01:50:03.323Z,994.63
2019-01-31T01:51:03.308Z,994.52
2019-01-31T01:52:03.298Z,994.60
2019-01-31T01:53:03.294Z,994.58
2019-01-31T01:54:03.295Z,994.57
2019-01-31T01:55:03.286Z,994.56
2019-01-31T01:56:03.256Z,994.57
2019-01-31T01:57:03.243Z,994.59
2019-01-31T01:58:03.239Z,994.51
2019-01-31T01:59:03.231Z,994.58
2019-01-31T02:00:03.238Z,994.55
2019-01-31T02:01:03.206Z,994.55
2019-01-31T02:02:03.193Z,994.55
2019-01-31T02:03:03.180Z,994.60
2019-01-31T02:04:03.192Z,994.57
2019-01-31T02:05:03.176Z,994.58
2019-01-31T02:06:03.162Z,994.57
2019-01-31T02:07:03.147Z,994.61
2019-01-31T02:08:03.125Z,994.57
2019-01-31T02:09:03.114Z,994.55
2019-01-31T02:10:03.117Z,994.60
2019-01-31T02:11:03.101Z,994.57
2019-01-31T02:12:03.082Z,994.56
2019-01-31T02:13:03.078Z,994.59
2019-01-31T02:14:03.067Z,994.55
2019-01-31T02:15:03.062Z,994.60
2019-01-31T02:16:03.044Z,994.57
2019-01-31T02:17:03.039Z,994.60
2019-01-31T02:18:03.019Z,994.58
2019-01-31T02:19:03.007Z,994.55
2019-01-31T02:20:03.014Z,994.61
2019-01-31T02:21:02.995Z,994.58
2019-01-31T02:22:02.985Z,994.64
2019-01-31T02:23:02.977Z,994.51
2019-01-31T02:24:02.954Z,994.49
2019-01-31T02:25:02.985Z,994.50
2019-01-31T02:26:02.928Z,994.54
2019-01-31T02:27:02.921Z,994.50
2019-01-31T02:28:02.911Z,994.52
2019-01-31T02:29:02.894Z,994.57
2019-01-31T02:30:02.890Z,994.51
2019-01-31T02:31:02.894Z,994.59
2019-01-31T02:32:02.867Z,994.51
2019-01-31T02:33:02.854Z,994.46
2019-01-31T02:34:02.852Z,994.51
2019-01-31T02:35:02.834Z,994.50
2019-01-31T02:36:05.082Z,994.54
2019-01-31T02:37:02.809Z,994.49
2019-01-31T02:38:02.805Z,994.54
2019-01-31T02:39:02.789Z,994.49
2019-01-31T02:40:02.781Z,994.55
2019-01-31T02:41:02.782Z,994.54
2019-01-31T02:42:02.748Z,994.59
2019-01-31T02:43:02.758Z,994.50
2019-01-31T02:44:02.741Z,994.50
2019-01-31T02:45:12.139Z,994.57
2019-01-31T02:46:02.716Z,994.54
2019-01-31T02:47:02.696Z,994.58
2019-01-31T02:48:02.683Z,994.54
2019-01-31T02:49:02.670Z,994.50
2019-01-31T02:50:02.665Z,994.47
2019-01-31T02:51:02.688Z,994.49
2019-01-31T02:52:02.639Z,994.55
2019-01-31T02:53:02.627Z,994.61
2019-01-31T02:54:02.625Z,994.50
2019-01-31T02:55:02.606Z,994.57
2019-01-31T02:56:02.597Z,994.55
2019-01-31T02:57:02.598Z,994.57
2019-01-31T02:58:02.573Z,994.57
2019-01-31T02:59:02.570Z,994.58
2019-01-31T03:00:02.552Z,994.56
2019-01-31T03:01:02.540Z,994.49
2019-01-31T03:02:02.539Z,994.50
2019-01-31T03:03:02.520Z,994.55
2019-01-31T03:04:02.508Z,994.49
2019-01-31T03:05:02.497Z,994.58
2019-01-31T03:06:02.487Z,994.51
2019-01-31T03:07:02.488Z,994.45
2019-01-31T03:08:02.465Z,994.51
2019-01-31T03:09:02.457Z,994.55
2019-01-31T03:10:02.445Z,994.52
2019-01-31T03:11:02.443Z,994.53
2019-01-31T03:12:02.432Z,994.47
2019-01-31T03:13:02.416Z,994.53
2019-01-31T03:14:10.046Z,994.53
2019-01-31T03:15:03.389Z,994.55
2019-01-31T03:16:02.381Z,994.53
2019-01-31T03:17:02.385Z,994.52
2019-01-31T03:18:02.356Z,994.49
2019-01-31T03:19:02.346Z,994.50
2019-01-31T03:20:02.334Z,994.49
2019-01-31T03:21:02.327Z,994.49
2019-01-31T03:22:02.325Z,994.50
2019-01-31T03:23:02.303Z,994.55
2019-01-31T03:24:02.295Z,994.53
2019-01-31T03:25:02.284Z,994.57
2019-01-31T03:26:02.279Z,994.56
2019-01-31T03:27:02.272Z,994.53
2019-01-31T03:28:02.248Z,994.60
2019-01-31T03:29:02.238Z,994.61
2019-01-31T03:30:02.228Z,994.60
2019-01-31T03:31:02.219Z,994.61
2019-01-31T03:32:02.230Z,994.56
2019-01-31T03:33:02.199Z,994.58
2019-01-31T03:34:02.186Z,994.59
2019-01-31T03:35:02.178Z,994.65
2019-01-31T03:36:02.163Z,994.56
2019-01-31T03:37:02.162Z,994.64
2019-01-31T03:38:02.143Z,994.62
2019-01-31T03:39:02.129Z,994.59
2019-01-31T03:40:06.805Z,994.68
2019-01-31T03:41:03.107Z,994.66
2019-01-31T03:42:02.112Z,994.67
2019-01-31T03:43:02.086Z,994.68
2019-01-31T03:44:02.075Z,994.68
2019-01-31T03:45:02.076Z,994.62
2019-01-31T03:46:02.060Z,994.68
2019-01-31T03:47:02.045Z,994.67
2019-01-31T03:48:02.041Z,994.62
2019-01-31T03:49:02.030Z,994.60
2019-01-31T03:50:02.017Z,994.72
2019-01-31T03:51:01.998Z,994.66
2019-01-31T03:52:01.987Z,994.63
2019-01-31T03:53:01.989Z,994.64
2019-01-31T03:54:01.965Z,994.61
2019-01-31T03:55:01.963Z,994.67
2019-01-31T03:56:01.952Z,994.66
2019-01-31T03:57:01.935Z,994.78
2019-01-31T03:58:01.938Z,994.68
2019-01-31T03:59:01.914Z,994.70
2019-01-31T04:00:01.900Z,994.69
2019-01-31T04:01:01.896Z,994.63
2019-01-31T04:02:01.893Z,994.66
2019-01-31T04:03:01.879Z,994.71
2019-01-31T04:04:01.858Z,994.70
2019-01-31T04:05:01.846Z,994.74
2019-01-31T04:06:01.835Z,994.72
2019-01-31T04:07:01.825Z,994.72
2019-01-31T04:08:01.828Z,994.71
2019-01-31T04:09:01.804Z,994.73
2019-01-31T04:10:01.792Z,994.71
2019-01-31T04:11:01.784Z,994.68
2019-01-31T04:12:01.771Z,994.67
2019-01-31T04:13:01.801Z,994.66
2019-01-31T04:14:01.752Z,994.63
2019-01-31T04:15:01.746Z,994.63
2019-01-31T04:16:01.729Z,994.67
2019-01-31T04:17:01.716Z,994.73
2019-01-31T04:18:01.709Z,994.69
2019-01-31T04:19:01.710Z,994.68
2019-01-31T04:20:01.688Z,994.69
2019-01-31T04:21:01.676Z,994.73
2019-01-31T04:22:01.662Z,994.69
2019-01-31T04:23:01.654Z,994.73
2019-01-31T04:24:01.662Z,994.72
2019-01-31T04:25:01.632Z,994.64
2019-01-31T04:26:01.666Z,994.64
2019-01-31T04:27:01.610Z,994.66
2019-01-31T04:28:01.601Z,994.70
2019-01-31T04:29:01.606Z,994.71
2019-01-31T04:30:01.580Z,994.73
2019-01-31T04:31:01.569Z,994.72
2019-01-31T04:32:01.559Z,994.73
2019-01-31T04:33:01.545Z,994.76
2019-01-31T04:34:01.545Z,994.70
2019-01-31T04:35:01.531Z,994.79
2019-01-31T04:36:01.516Z,994.70
2019-01-31T04:37:01.504Z,994.71
2019-01-31T04:38:01.491Z,994.74
2019-01-31T04:39:01.500Z,994.71
2019-01-31T04:40:01.472Z,994.69
2019-01-31T04:41:01.462Z,994.80
2019-01-31T04:42:01.448Z,994.76
2019-01-31T04:43:01.442Z,994.74
2019-01-31T04:44:01.438Z,994.71
2019-01-31T04:45:01.418Z,994.73
2019-01-31T04:46:01.410Z,994.74
2019-01-31T04:47:01.397Z,994.71
2019-01-31T04:48:01.384Z,994.73
2019-01-31T04:49:01.388Z,994.74
2019-01-31T04:50:01.367Z,994.76
2019-01-31T04:51:01.352Z,994.71
2019-01-31T04:52:01.343Z,994.73
2019-01-31T04:53:01.338Z,994.74
2019-01-31T04:54:01.334Z,994.72
2019-01-31T04:55:01.312Z,994.75
2019-01-31T04:56:01.305Z,994.65
2019-01-31T04:57:01.290Z,994.70
2019-01-31T04:58:01.276Z,994.75
2019-01-31T04:59:01.276Z,994.74
2019-01-31T05:00:01.256Z,994.76
2019-01-31T05:01:01.246Z,994.80
2019-01-31T05:02:01.246Z,994.81
2019-01-31T05:03:01.251Z,994.83
2019-01-31T05:04:01.224Z,994.83
2019-01-31T05:05:01.285Z,994.88
2019-01-31T05:06:01.192Z,994.83
2019-01-31T05:07:01.180Z,994.80
2019-01-31T05:08:01.205Z,994.84
2019-01-31T05:09:01.172Z,994.88
2019-01-31T05:10:01.149Z,994.89
2019-01-31T05:11:01.137Z,994.94
2019-01-31T05:12:01.128Z,994.93
2019-01-31T05:13:01.116Z,994.92
2019-01-31T05:14:01.118Z,994.94
2019-01-31T05:15:01.098Z,994.88
2019-01-31T05:16:03.671Z,994.86
2019-01-31T05:17:01.074Z,994.91
2019-01-31T05:18:01.061Z,994.91
2019-01-31T05:19:01.064Z,994.91
2019-01-31T05:20:01.042Z,994.93
2019-01-31T05:21:01.032Z,994.89
2019-01-31T05:22:01.025Z,994.88
2019-01-31T05:23:01.011Z,994.93
2019-01-31T05:24:01.011Z,994.93
2019-01-31T05:25:00.991Z,994.94
2019-01-31T05:26:00.975Z,994.95
2019-01-31T05:27:00.965Z,994.97
2019-01-31T05:28:00.955Z,994.93
2019-01-31T05:29:00.954Z,994.97
2019-01-31T05:30:00.932Z,994.97
2019-01-31T05:31:00.937Z,994.93
2019-01-31T05:32:00.914Z,995.02
2019-01-31T05:33:00.900Z,994.95
2019-01-31T05:34:00.903Z,994.99
2019-01-31T05:35:00.882Z,995.00
2019-01-31T05:36:00.872Z,994.99
2019-01-31T05:37:00.871Z,995.07
2019-01-31T05:38:00.847Z,995.13
2019-01-31T05:39:00.853Z,995.03
2019-01-31T05:40:00.826Z,995.02
2019-01-31T05:41:00.814Z,995.02
2019-01-31T05:42:00.803Z,995.11
2019-01-31T05:43:00.792Z,995.12
2019-01-31T05:44:00.793Z,995.06
2019-01-31T05:45:00.772Z,995.12
2019-01-31T05:46:00.788Z,995.06
2019-01-31T05:47:00.753Z,995.11
2019-01-31T05:48:00.741Z,995.12
2019-01-31T05:49:00.875Z,995.08
2019-01-31T05:50:00.719Z,995.18
2019-01-31T05:51:00.710Z,995.09
2019-01-31T05:52:00.697Z,995.13
2019-01-31T05:53:00.687Z,995.20
2019-01-31T05:54:00.689Z,995.19
2019-01-31T05:55:00.804Z,995.19
2019-01-31T05:56:00.653Z,995.21
2019-01-31T05:57:00.652Z,995.21
2019-01-31T05:58:00.631Z,995.20
2019-01-31T05:59:00.631Z,995.20
2019-01-31T06:00:00.608Z,995.21
2019-01-31T06:01:00.597Z,995.24
2019-01-31T06:02:00.589Z,995.20
2019-01-31T06:03:00.578Z,995.23
2019-01-31T06:04:00.582Z,995.23
2019-01-31T06:05:00.556Z,995.25
2019-01-31T06:06:00.546Z,995.33
2019-01-31T06:07:10.668Z,995.29
2019-01-31T06:08:01.521Z,995.23
2019-01-31T06:09:00.524Z,995.34
2019-01-31T06:10:00.502Z,995.29
2019-01-31T06:11:07.557Z,995.34
2019-01-31T06:12:01.479Z,995.31
2019-01-31T06:13:00.471Z,995.39
2019-01-31T06:14:00.470Z,995.28
2019-01-31T06:15:00.450Z,995.35
2019-01-31T06:16:00.437Z,995.39
2019-01-31T06:17:00.427Z,995.29
2019-01-31T06:18:00.431Z,995.37
2019-01-31T06:19:00.416Z,995.40
2019-01-31T06:20:00.394Z,995.32
2019-01-31T06:21:00.383Z,995.38
2019-01-31T06:22:00.370Z,995.34
2019-01-31T06:23:00.363Z,995.35
2019-01-31T06:24:00.493Z,995.40
2019-01-31T06:25:00.340Z,995.39
2019-01-31T06:26:00.330Z,995.35
2019-01-31T06:27:00.317Z,995.40
2019-01-31T06:28:00.311Z,995.41
2019-01-31T06:29:00.306Z,995.35
2019-01-31T06:30:00.294Z,995.38
2019-01-31T06:31:00.277Z,995.42
2019-01-31T06:32:00.262Z,995.44
2019-01-31T06:33:00.252Z,995.48
2019-01-31T06:34:00.263Z,995.46
2019-01-31T06:35:00.379Z,995.49
2019-01-31T06:36:00.222Z,995.44
2019-01-31T06:37:00.208Z,995.48
2019-01-31T06:38:00.208Z,995.54
2019-01-31T06:39:00.277Z,995.51
2019-01-31T06:40:00.330Z,995.50
2019-01-31T06:41:00.173Z,995.52
2019-01-31T06:42:00.154Z,995.57
2019-01-31T06:43:00.152Z,995.52
2019-01-31T06:44:00.131Z,995.52
2019-01-31T06:45:00.304Z,995.53
2019-01-31T06:46:00.120Z,995.53
2019-01-31T06:47:00.152Z,995.60
2019-01-31T06:48:00.090Z,995.67
2019-01-31T06:49:00.085Z,995.62
2019-01-31T06:50:00.092Z,995.55
2019-01-31T06:51:00.061Z,995.60
2019-01-31T06:52:00.054Z,995.56
2019-01-31T06:53:00.042Z,995.54
2019-01-31T06:54:00.024Z,995.58
2019-01-31T06:55:00.039Z,995.63
2019-01-31T06:56:00.003Z,995.56
2019-01-31T06:57:00.054Z,995.58
2019-01-31T06:57:59.981Z,995.67
2019-01-31T06:59:00.009Z,995.64
2019-01-31T06:59:59.971Z,995.65
2019-01-31T07:00:59.957Z,995.71
2019-01-31T07:01:59.937Z,995.65
2019-01-31T07:02:59.954Z,995.70
2019-01-31T07:03:59.915Z,995.74
2019-01-31T07:05:00.321Z,995.72
2019-01-31T07:05:59.894Z,995.73
2019-01-31T07:06:59.909Z,995.68
2019-01-31T07:07:59.875Z,995.67
2019-01-31T07:08:59.914Z,995.75
2019-01-31T07:09:59.860Z,995.70
2019-01-31T07:10:59.901Z,995.67
2019-01-31T07:11:59.830Z,995.72
2019-01-31T07:12:59.880Z,995.68
2019-01-31T07:13:59.808Z,995.73
2019-01-31T07:14:59.818Z,995.70
2019-01-31T07:15:59.783Z,995.77
2019-01-31T07:16:59.795Z,995.68
2019-01-31T07:17:59.763Z,995.68
2019-01-31T07:18:59.780Z,995.68
2019-01-31T07:19:59.754Z,995.71
2019-01-31T07:20:59.756Z,995.65
2019-01-31T07:21:59.723Z,995.69
2019-01-31T07:22:59.723Z,995.77
2019-01-31T07:23:59.699Z,995.79
2019-01-31T07:24:59.706Z,995.76
2019-01-31T07:25:59.679Z,995.70
2019-01-31T07:26:59.665Z,995.77
2019-01-31T07:27:59.657Z,995.79
2019-01-31T07:28:59.644Z,995.83
2019-01-31T07:29:59.645Z,995.77
2019-01-31T07:30:59.649Z,995.79
2019-01-31T07:31:59.614Z,995.81
2019-01-31T07:32:59.673Z,995.76
2019-01-31T07:33:59.592Z,995.74
2019-01-31T07:34:59.630Z,995.69
2019-01-31T07:35:59.574Z,995.81
2019-01-31T07:36:59.559Z,995.78
2019-01-31T07:37:59.552Z,995.71
2019-01-31T07:38:59.545Z,995.67
2019-01-31T07:39:59.539Z,995.66
2019-01-31T07:40:59.517Z,995.71
2019-01-31T07:41:59.507Z,995.71
2019-01-31T07:42:59.507Z,995.79
2019-01-31T07:43:59.489Z,995.80
2019-01-31T07:44:59.485Z,995.78
2019-01-31T07:45:59.462Z,995.75
2019-01-31T07:46:59.450Z,995.74
2019-01-31T07:47:59.456Z,995.82
2019-01-31T07:48:59.428Z,995.77
2019-01-31T07:49:59.432Z,995.80
2019-01-31T07:50:59.408Z,995.84
2019-01-31T07:51:59.396Z,995.77
2019-01-31T07:52:59.399Z,995.82
2019-01-31T07:53:59.378Z,995.74
2019-01-31T07:55:01.901Z,995.78
2019-01-31T07:55:59.355Z,995.79
2019-01-31T07:56:59.344Z,995.83
2019-01-31T07:57:59.332Z,995.86
2019-01-31T07:58:59.323Z,995.84
2019-01-31T07:59:59.321Z,995.87
2019-01-31T08:00:59.301Z,995.80
2019-01-31T08:01:59.293Z,995.87
2019-01-31T08:02:59.281Z,995.85
2019-01-31T08:04:02.617Z,995.84
2019-01-31T08:04:59.272Z,995.88
2019-01-31T08:05:59.373Z,995.88
2019-01-31T08:06:59.236Z,995.87
2019-01-31T08:07:59.228Z,995.85
2019-01-31T08:08:59.220Z,995.86
2019-01-31T08:09:59.213Z,995.90
2019-01-31T08:10:59.193Z,995.82
2019-01-31T08:11:59.183Z,995.88
2019-01-31T08:12:59.171Z,995.83
2019-01-31T08:13:59.166Z,995.85
2019-01-31T08:14:59.152Z,995.95
2019-01-31T08:15:59.150Z,995.98
2019-01-31T08:16:59.128Z,995.94
2019-01-31T08:17:59.119Z,995.97
2019-01-31T08:18:59.105Z,995.98
2019-01-31T08:19:59.095Z,995.98
2019-01-31T08:20:59.098Z,996.01
2019-01-31T08:21:59.074Z,996.01
2019-01-31T08:23:00.207Z,995.94
2019-01-31T08:23:59.052Z,995.98
2019-01-31T08:24:59.042Z,995.99
2019-01-31T08:25:59.043Z,995.95
2019-01-31T08:26:59.022Z,996.00
2019-01-31T08:27:59.012Z,996.03
2019-01-31T08:28:58.999Z,996.02
2019-01-31T08:29:58.989Z,995.96
2019-01-31T08:30:58.994Z,995.98
2019-01-31T08:31:58.966Z,996.02
2019-01-31T08:32:58.955Z,995.98
2019-01-31T08:33:58.948Z,996.00
2019-01-31T08:34:58.934Z,996.05
2019-01-31T08:35:58.942Z,995.96
2019-01-31T08:36:58.911Z,995.98
2019-01-31T08:37:58.904Z,996.08
2019-01-31T08:38:58.893Z,995.98
2019-01-31T08:39:58.882Z,996.05
2019-01-31T08:40:58.894Z,996.07
2019-01-31T08:42:03.902Z,996.10
2019-01-31T08:42:59.846Z,996.09
2019-01-31T08:43:58.842Z,996.07
2019-01-31T08:44:58.829Z,996.10
2019-01-31T08:45:58.829Z,996.07
2019-01-31T08:46:58.809Z,996.08
2019-01-31T08:47:58.794Z,996.07
2019-01-31T08:48:58.783Z,996.13
2019-01-31T08:49:58.771Z,996.09
2019-01-31T08:50:58.773Z,996.16
2019-01-31T08:51:58.753Z,996.05
2019-01-31T08:52:58.745Z,996.06
2019-01-31T08:53:58.731Z,996.08
2019-01-31T08:54:58.717Z,996.10
2019-01-31T08:55:58.757Z,996.13
2019-01-31T08:56:58.697Z,996.13
2019-01-31T08:57:58.692Z,996.16
2019-01-31T08:58:58.675Z,996.15
2019-01-31T08:59:58.664Z,996.15
2019-01-31T09:00:58.678Z,996.22
2019-01-31T09:01:58.644Z,996.18
2019-01-31T09:02:58.647Z,996.24
2019-01-31T09:03:58.624Z,996.17
2019-01-31T09:04:58.615Z,996.26
2019-01-31T09:05:58.617Z,996.24
2019-01-31T09:06:58.590Z,996.26
2019-01-31T09:07:58.589Z,996.28
2019-01-31T09:08:58.575Z,996.24
2019-01-31T09:09:58.558Z,996.29
2019-01-31T09:10:58.558Z,996.32
2019-01-31T09:11:58.536Z,996.35
2019-01-31T09:12:58.524Z,996.38
2019-01-31T09:13:58.513Z,996.31
2019-01-31T09:14:58.505Z,996.34
2019-01-31T09:15:58.504Z,996.39
2019-01-31T09:16:58.482Z,996.42
2019-01-31T09:17:58.473Z,996.35
2019-01-31T09:18:58.461Z,996.40
2019-01-31T09:19:58.455Z,996.45
2019-01-31T09:20:58.474Z,996.50
2019-01-31T09:21:58.427Z,996.43
2019-01-31T09:22:58.416Z,996.44
2019-01-31T09:23:58.407Z,996.42
2019-01-31T09:24:58.394Z,996.39
2019-01-31T09:25:58.393Z,996.39
2019-01-31T09:26:58.372Z,996.39
2019-01-31T09:27:58.362Z,996.45
2019-01-31T09:28:58.350Z,996.40
2019-01-31T09:29:58.349Z,996.42
2019-01-31T09:30:58.360Z,996.40
2019-01-31T09:31:58.320Z,996.36
2019-01-31T09:32:58.308Z,996.40
2019-01-31T09:33:58.296Z,996.37
2019-01-31T09:34:58.307Z,996.41
2019-01-31T09:35:58.275Z,996.38
2019-01-31T09:36:58.277Z,996.45
2019-01-31T09:37:58.256Z,996.40
2019-01-31T09:38:58.242Z,996.41
2019-01-31T09:39:58.232Z,996.47
2019-01-31T09:40:58.227Z,996.45
2019-01-31T09:41:58.226Z,996.45
2019-01-31T09:42:58.208Z,996.48
2019-01-31T09:43:58.192Z,996.44
2019-01-31T09:44:58.212Z,996.41
2019-01-31T09:45:58.167Z,996.52
2019-01-31T09:46:58.167Z,996.46
2019-01-31T09:47:58.146Z,996.43
2019-01-31T09:48:58.137Z,996.38
2019-01-31T09:49:58.128Z,996.43
2019-01-31T09:50:58.118Z,996.39
2019-01-31T09:51:58.118Z,996.45
2019-01-31T09:52:58.094Z,996.43
2019-01-31T09:53:58.085Z,996.39
2019-01-31T09:54:58.069Z,996.53
2019-01-31T09:55:58.058Z,996.43
2019-01-31T09:56:58.059Z,996.43
2019-01-31T09:57:58.041Z,996.43
2019-01-31T09:58:58.025Z,996.44
2019-01-31T09:59:58.019Z,996.44
2019-01-31T10:00:58.007Z,996.45
2019-01-31T10:01:58.004Z,996.46
2019-01-31T10:02:57.983Z,996.48
2019-01-31T10:03:57.983Z,996.67
2019-01-31T10:04:57.965Z,996.46
2019-01-31T10:05:57.950Z,996.47
2019-01-31T10:06:57.970Z,996.36
2019-01-31T10:07:58.035Z,996.37
2019-01-31T10:08:57.918Z,996.43
2019-01-31T10:09:57.957Z,996.38
2019-01-31T10:10:57.945Z,996.48
2019-01-31T10:11:57.917Z,996.47
2019-01-31T10:12:57.953Z,996.46
2019-01-31T10:13:57.936Z,996.47
2019-01-31T10:14:57.883Z,996.40
2019-01-31T10:15:57.922Z,996.44
2019-01-31T10:16:57.828Z,996.37
2019-01-31T10:17:57.867Z,996.44
2019-01-31T10:18:57.836Z,996.39
2019-01-31T10:19:57.887Z,996.50
2019-01-31T10:20:57.820Z,996.34
2019-01-31T10:21:57.814Z,996.40
2019-01-31T10:22:57.902Z,996.31
2019-01-31T10:23:57.807Z,996.33
2019-01-31T10:24:57.775Z,996.33
2019-01-31T10:25:57.743Z,996.31
2019-01-31T10:26:57.725Z,996.35
2019-01-31T10:27:57.721Z,996.36
2019-01-31T10:28:57.697Z,996.34
2019-01-31T10:29:57.686Z,996.29
2019-01-31T10:30:57.676Z,996.32
2019-01-31T10:31:57.669Z,996.30
2019-01-31T10:32:57.735Z,996.29
2019-01-31T10:33:57.642Z,996.28
2019-01-31T10:34:57.633Z,996.23
2019-01-31T10:35:57.622Z,996.26
2019-01-31T10:36:57.610Z,996.25
2019-01-31T10:37:57.625Z,996.24
2019-01-31T10:38:57.589Z,996.28
2019-01-31T10:39:57.580Z,996.27
2019-01-31T10:40:57.567Z,996.26
2019-01-31T10:41:57.555Z,996.32
2019-01-31T10:42:57.562Z,996.32
2019-01-31T10:43:57.561Z,996.28
2019-01-31T10:44:57.526Z,996.25
2019-01-31T10:45:57.510Z,996.31
2019-01-31T10:46:57.501Z,996.27
2019-01-31T10:47:57.489Z,996.26
2019-01-31T10:48:57.532Z,996.25
2019-01-31T10:49:57.467Z,996.25
2019-01-31T10:50:58.593Z,996.26
2019-01-31T10:51:57.450Z,996.28
2019-01-31T10:52:57.434Z,996.22
2019-01-31T10:53:57.435Z,996.26
2019-01-31T10:54:57.414Z,996.31
2019-01-31T10:55:57.414Z,996.30
2019-01-31T10:56:57.394Z,996.28
2019-01-31T10:57:57.380Z,996.23
2019-01-31T10:58:57.379Z,996.19
2019-01-31T10:59:57.359Z,996.14
2019-01-31T11:00:57.347Z,996.25
2019-01-31T11:01:57.344Z,996.29
2019-01-31T11:02:57.324Z,996.27
2019-01-31T11:03:57.329Z,996.30
2019-01-31T11:04:57.303Z,996.26
2019-01-31T11:05:57.295Z,996.26
2019-01-31T11:06:57.282Z,996.26
2019-01-31T11:07:59.579Z,996.26
2019-01-31T11:08:57.272Z,996.26
2019-01-31T11:09:57.251Z,996.20
2019-01-31T11:10:57.237Z,996.24
2019-01-31T11:11:57.226Z,996.23
2019-01-31T11:13:00.819Z,996.23
2019-01-31T11:13:57.227Z,996.21
2019-01-31T11:14:57.197Z,996.13
2019-01-31T11:15:57.182Z,996.25
2019-01-31T11:16:57.179Z,996.26
2019-01-31T11:17:57.162Z,996.29
2019-01-31T11:19:01.639Z,996.25
2019-01-31T11:19:58.139Z,996.22
2019-01-31T11:20:57.131Z,996.16
2019-01-31T11:21:57.115Z,996.17
2019-01-31T11:22:57.208Z,996.16
2019-01-31T11:23:57.094Z,996.11
2019-01-31T11:24:57.098Z,996.15
2019-01-31T11:25:57.074Z,996.15
2019-01-31T11:26:57.232Z,996.17
2019-01-31T11:27:57.049Z,996.15
2019-01-31T11:28:57.137Z,996.14
2019-01-31T11:29:57.038Z,996.17
2019-01-31T11:30:57.020Z,996.21
2019-01-31T11:31:57.005Z,996.14
2019-01-31T11:32:56.996Z,996.20
2019-01-31T11:33:56.983Z,996.17
2019-01-31T11:34:57.003Z,996.18
2019-01-31T11:35:56.964Z,996.17
2019-01-31T11:36:56.953Z,996.18
2019-01-31T11:37:56.941Z,996.14
2019-01-31T11:38:56.952Z,996.14
2019-01-31T11:39:56.929Z,996.17
2019-01-31T11:40:56.912Z,996.14
2019-01-31T11:41:56.901Z,996.18
2019-01-31T11:42:56.887Z,996.18
2019-01-31T11:43:56.873Z,996.19
2019-01-31T11:44:56.873Z,996.15
2019-01-31T11:45:56.853Z,996.16
2019-01-31T11:46:56.846Z,996.18
2019-01-31T11:47:56.841Z,996.17
2019-01-31T11:48:56.820Z,996.22
2019-01-31T11:49:56.826Z,996.15
2019-01-31T11:50:56.798Z,996.19
2019-01-31T11:51:56.790Z,996.19
2019-01-31T11:52:56.783Z,996.13
2019-01-31T11:53:56.816Z,996.09
2019-01-31T11:54:56.767Z,996.12
2019-01-31T11:55:56.753Z,996.15
2019-01-31T11:57:05.254Z,996.14
2019-01-31T11:57:57.731Z,996.17
2019-01-31T11:58:56.727Z,996.15
2019-01-31T11:59:56.742Z,996.23
2019-01-31T12:00:56.688Z,996.19
2019-01-31T12:01:56.678Z,996.16
2019-01-31T12:02:56.667Z,996.16
2019-01-31T12:03:56.662Z,996.12
2019-01-31T12:04:56.646Z,996.12
2019-01-31T12:05:56.674Z,996.10
2019-01-31T12:06:57.185Z,996.12
2019-01-31T12:07:56.610Z,996.16
2019-01-31T12:08:56.601Z,996.13
2019-01-31T12:09:56.589Z,996.12
2019-01-31T12:10:56.593Z,996.16
2019-01-31T12:11:56.567Z,996.12
2019-01-31T12:12:56.558Z,996.13
2019-01-31T12:13:56.543Z,996.14
2019-01-31T12:14:56.539Z,996.12
2019-01-31T12:15:56.532Z,996.12
2019-01-31T12:16:56.523Z,996.14
2019-01-31T12:17:56.508Z,996.12
2019-01-31T12:18:56.567Z,996.10
2019-01-31T12:19:56.483Z,996.10
2019-01-31T12:20:56.499Z,996.07
2019-01-31T12:21:56.488Z,996.11
2019-01-31T12:22:56.445Z,996.14
2019-01-31T12:23:56.438Z,996.09
2019-01-31T12:24:56.425Z,996.04
2019-01-31T12:25:56.442Z,996.10
2019-01-31T12:26:56.466Z,996.11
2019-01-31T12:27:56.391Z,996.12